Skip Navigation LinksHome page > Weather > Current weather Skip Navigation Links

Current Weather

Ronald Reagan Washington National, Washington

For information only: do not use for flight planning or navigation.
Latest weather
Observation time Sunday, May 26, 2019 11:52 AM EDT
Local time Sunday, May 26, 2019 12:17 PM EDT
Flight conditions Visual Meteorological Conditions
Winds
Wind direction North-Northwest (330°)
Wind speed 9 mph
Visibility 10 mi.
Sky condition
Ceiling unlimited
Cloud layer few clouds 5,000 ft.
Cloud layer few clouds 16,000 ft.
Cloud layer scattered clouds 25,000 ft.
Temperature 88°F
Dewpoint 68°F
Altimeter 30.01 in.Hg
Derived measurements
Relative humidity 52%
Heat index 92°F
Density altitude 2073 ft.
Sea-level pressure 30.01 in.Hg
Remarks
System requires maintenance.
Automated weather observing station with precipitation discriminator.
METAR KDCA 261552Z 33008KT 10SM FEW050 FEW160 SCT250 31/20 A3001 RMK AO2 SLP163 T03110200 $

Settings

Location code

InnerDrive.Weather 4.0.6770.0 Release CLR 4.0.30319.42000
Copyright ©2018 Inner Drive Technology. All rights reserved. Portions Copyright ©1986-2018 David Braverman.

Find weather

Site navigation


Skip Navigation Links

Place info

Page info

PayPal - The safer, easier way to pay online!

Return home.

Copyright ©2019 Inner Drive Technology. Purveyors of fine, hand-crafted computer software. Page printed 2019-05-26T16:17:01 UTC.